sensor_id;sensor_type;location;lat;lon;timestamp;pressure;altitude;pressure_sealevel;temperature;humidity
80648;BME280;70012;0.000;0.000;2024-03-06T00:00:03;100767.66;;;5.50;88.00
80648;BME280;70012;0.000;0.000;2024-03-06T00:02:30;100766.19;;;5.40;88.03
80648;BME280;70012;0.000;0.000;2024-03-06T00:04:57;100776.00;;;5.41;88.19
80648;BME280;70012;0.000;0.000;2024-03-06T00:07:24;100767.44;;;5.38;88.28
80648;BME280;70012;0.000;0.000;2024-03-06T00:09:51;100784.34;;;5.47;88.05
80648;BME280;70012;0.000;0.000;2024-03-06T00:12:19;100778.94;;;5.40;87.99
80648;BME280;70012;0.000;0.000;2024-03-06T00:14:49;100791.47;;;5.48;87.84
80648;BME280;70012;0.000;0.000;2024-03-06T00:17:16;100781.88;;;5.38;88.41
80648;BME280;70012;0.000;0.000;2024-03-06T00:19:43;100779.34;;;5.30;88.42
80648;BME280;70012;0.000;0.000;2024-03-06T00:22:09;100788.13;;;5.39;88.28
80648;BME280;70012;0.000;0.000;2024-03-06T00:24:36;100800.03;;;5.44;88.39
80648;BME280;70012;0.000;0.000;2024-03-06T00:27:03;100794.19;;;5.41;88.32
80648;BME280;70012;0.000;0.000;2024-03-06T00:29:30;100801.06;;;5.43;88.39
80648;BME280;70012;0.000;0.000;2024-03-06T00:31:58;100794.38;;;5.39;88.17
80648;BME280;70012;0.000;0.000;2024-03-06T00:34:25;100810.25;;;5.42;88.12
80648;BME280;70012;0.000;0.000;2024-03-06T00:36:53;100791.03;;;5.31;88.00
80648;BME280;70012;0.000;0.000;2024-03-06T00:39:21;100813.59;;;5.38;87.94
80648;BME280;70012;0.000;0.000;2024-03-06T00:41:47;100806.69;;;5.35;87.88
80648;BME280;70012;0.000;0.000;2024-03-06T00:44:15;100806.91;;;5.27;87.57
80648;BME280;70012;0.000;0.000;2024-03-06T00:46:41;100792.69;;;5.18;87.38
80648;BME280;70012;0.000;0.000;2024-03-06T00:49:08;100817.78;;;5.34;87.53
80648;BME280;70012;0.000;0.000;2024-03-06T00:51:35;100818.19;;;5.31;87.50
80648;BME280;70012;0.000;0.000;2024-03-06T00:54:14;100808.75;;;5.20;87.05
80648;BME280;70012;0.000;0.000;2024-03-06T00:56:40;100821.94;;;5.23;87.20
80648;BME280;70012;0.000;0.000;2024-03-06T00:59:07;100830.06;;;5.29;87.00
80648;BME280;70012;0.000;0.000;2024-03-06T01:01:34;100830.72;;;5.25;86.90
80648;BME280;70012;0.000;0.000;2024-03-06T01:04:01;100828.00;;;5.25;86.85
80648;BME280;70012;0.000;0.000;2024-03-06T01:06:28;100838.00;;;5.24;86.69
80648;BME280;70012;0.000;0.000;2024-03-06T01:08:55;100831.94;;;5.16;86.81
80648;BME280;70012;0.000;0.000;2024-03-06T01:11:23;100835.47;;;5.09;86.86
80648;BME280;70012;0.000;0.000;2024-03-06T01:13:50;100845.69;;;5.07;86.55
80648;BME280;70012;0.000;0.000;2024-03-06T01:16:17;100825.41;;;4.96;86.45
80648;BME280;70012;0.000;0.000;2024-03-06T01:18:48;100842.34;;;5.05;86.56
80648;BME280;70012;0.000;0.000;2024-03-06T01:21:15;100822.69;;;4.90;86.47
80648;BME280;70012;0.000;0.000;2024-03-06T01:23:42;100829.81;;;4.91;86.47
80648;BME280;70012;0.000;0.000;2024-03-06T01:26:09;100840.22;;;4.94;86.33
80648;BME280;70012;0.000;0.000;2024-03-06T01:28:36;100838.97;;;4.90;86.39
80648;BME280;70012;0.000;0.000;2024-03-06T01:31:03;100844.41;;;4.90;86.28
80648;BME280;70012;0.000;0.000;2024-03-06T01:33:30;100843.75;;;4.88;86.43
80648;BME280;70012;0.000;0.000;2024-03-06T01:35:56;100826.63;;;4.74;86.36
80648;BME280;70012;0.000;0.000;2024-03-06T01:38:24;100845.22;;;4.84;86.53
80648;BME280;70012;0.000;0.000;2024-03-06T01:40:50;100837.66;;;4.72;86.53
80648;BME280;70012;0.000;0.000;2024-03-06T01:43:21;100851.03;;;4.80;86.95
80648;BME280;70012;0.000;0.000;2024-03-06T01:45:52;100838.06;;;4.76;86.54
80648;BME280;70012;0.000;0.000;2024-03-06T01:48:23;100854.78;;;4.79;86.78
80648;BME280;70012;0.000;0.000;2024-03-06T01:50:56;100851.69;;;4.83;86.66
80648;BME280;70012;0.000;0.000;2024-03-06T01:53:24;100854.78;;;4.79;86.63
80648;BME280;70012;0.000;0.000;2024-03-06T01:55:53;100844.56;;;4.75;86.39
80648;BME280;70012;0.000;0.000;2024-03-06T01:58:20;100852.72;;;4.81;86.46
80648;BME280;70012;0.000;0.000;2024-03-06T02:00:49;100850.16;;;4.73;86.67
80648;BME280;70012;0.000;0.000;2024-03-06T02:03:17;100839.09;;;4.68;86.39
80648;BME280;70012;0.000;0.000;2024-03-06T02:05:45;100860.22;;;4.79;86.47
80648;BME280;70012;0.000;0.000;2024-03-06T02:08:13;100853.53;;;4.75;86.79
80648;BME280;70012;0.000;0.000;2024-03-06T02:10:40;100869.38;;;4.78;86.63
80648;BME280;70012;0.000;0.000;2024-03-06T02:13:07;100857.91;;;4.76;86.71
80648;BME280;70012;0.000;0.000;2024-03-06T02:15:36;100853.91;;;4.72;86.30
80648;BME280;70012;0.000;0.000;2024-03-06T02:18:06;100844.91;;;4.65;86.53
80648;BME280;70012;0.000;0.000;2024-03-06T02:20:33;100848.69;;;4.64;86.75
80648;BME280;70012;0.000;0.000;2024-03-06T02:23:01;100864.78;;;4.72;86.92
80648;BME280;70012;0.000;0.000;2024-03-06T02:25:29;100862.25;;;4.71;86.61
80648;BME280;70012;0.000;0.000;2024-03-06T02:27:56;100842.19;;;4.58;86.44
80648;BME280;70012;0.000;0.000;2024-03-06T02:30:23;100838.00;;;4.56;86.25
80648;BME280;70012;0.000;0.000;2024-03-06T02:32:49;100843.81;;;4.53;86.23
80648;BME280;70012;0.000;0.000;2024-03-06T02:35:16;100867.03;;;4.62;86.01
80648;BME280;70012;0.000;0.000;2024-03-06T02:37:44;100847.97;;;4.48;86.24
80648;BME280;70012;0.000;0.000;2024-03-06T02:40:11;100855.53;;;4.53;86.05
80648;BME280;70012;0.000;0.000;2024-03-06T02:42:38;100859.88;;;4.47;85.88
80648;BME280;70012;0.000;0.000;2024-03-06T02:45:08;100847.53;;;4.38;86.04
80648;BME280;70012;0.000;0.000;2024-03-06T02:47:35;100858.59;;;4.43;86.09
80648;BME280;70012;0.000;0.000;2024-03-06T02:50:02;100840.34;;;4.24;86.08
80648;BME280;70012;0.000;0.000;2024-03-06T02:52:28;100843.00;;;4.17;85.68
80648;BME280;70012;0.000;0.000;2024-03-06T02:54:56;100863.50;;;4.26;85.54
80648;BME280;70012;0.000;0.000;2024-03-06T02:57:22;100854.06;;;4.15;85.78
80648;BME280;70012;0.000;0.000;2024-03-06T02:59:53;100846.50;;;4.11;85.91
80648;BME280;70012;0.000;0.000;2024-03-06T03:02:19;100850.47;;;4.08;86.11
80648;BME280;70012;0.000;0.000;2024-03-06T03:04:46;100850.22;;;4.03;85.78
80648;BME280;70012;0.000;0.000;2024-03-06T03:07:13;100852.28;;;4.01;85.97
80648;BME280;70012;0.000;0.000;2024-03-06T03:09:39;100842.22;;;3.95;86.08
80648;BME280;70012;0.000;0.000;2024-03-06T03:12:06;100853.06;;;3.95;85.37
80648;BME280;70012;0.000;0.000;2024-03-06T03:14:33;100859.47;;;3.87;85.89
80648;BME280;70012;0.000;0.000;2024-03-06T03:17:03;100875.41;;;3.97;86.03
80648;BME280;70012;0.000;0.000;2024-03-06T03:19:32;100879.28;;;3.88;85.63
80648;BME280;70012;0.000;0.000;2024-03-06T03:21:59;100879.69;;;3.84;86.02
80648;BME280;70012;0.000;0.000;2024-03-06T03:35:07;100886.38;;;3.45;86.20
80648;BME280;70012;0.000;0.000;2024-03-06T03:37:37;100889.28;;;3.44;86.15
80648;BME280;70012;0.000;0.000;2024-03-06T03:40:06;100903.03;;;3.42;86.18
80648;BME280;70012;0.000;0.000;2024-03-06T03:42:33;100907.53;;;3.35;85.69
80648;BME280;70012;0.000;0.000;2024-03-06T03:45:03;100902.88;;;3.29;86.09
80648;BME280;70012;0.000;0.000;2024-03-06T03:47:34;100911.00;;;3.29;86.47
80648;BME280;70012;0.000;0.000;2024-03-06T03:50:01;100920.41;;;3.33;86.41
80648;BME280;70012;0.000;0.000;2024-03-06T03:52:36;100906.72;;;3.19;86.43
80648;BME280;70012;0.000;0.000;2024-03-06T03:55:10;100931.63;;;3.30;86.43
80648;BME280;70012;0.000;0.000;2024-03-06T03:57:39;100935.38;;;3.29;86.13
80648;BME280;70012;0.000;0.000;2024-03-06T04:00:06;100920.25;;;3.19;86.43
80648;BME280;70012;0.000;0.000;2024-03-06T04:02:40;100913.56;;;3.15;86.95
80648;BME280;70012;0.000;0.000;2024-03-06T04:05:11;100920.72;;;3.23;86.67
80648;BME280;70012;0.000;0.000;2024-03-06T04:07:45;100932.25;;;3.32;86.51
80648;BME280;70012;0.000;0.000;2024-03-06T04:10:15;100919.88;;;3.23;87.23
80648;BME280;70012;0.000;0.000;2024-03-06T04:12:45;100932.25;;;3.32;87.07
80648;BME280;70012;0.000;0.000;2024-03-06T04:15:14;100924.53;;;3.29;86.17
80648;BME280;70012;0.000;0.000;2024-03-06T04:17:41;100918.22;;;3.22;86.66
80648;BME280;70012;0.000;0.000;2024-03-06T04:20:15;100944.00;;;3.39;86.31
80648;BME280;70012;0.000;0.000;2024-03-06T04:22:43;100923.88;;;3.27;86.89
80648;BME280;70012;0.000;0.000;2024-03-06T04:25:10;100942.16;;;3.40;87.07
80648;BME280;70012;0.000;0.000;2024-03-06T04:27:54;100929.56;;;3.32;86.99
80648;BME280;70012;0.000;0.000;2024-03-06T04:30:24;100906.94;;;3.18;87.00
80648;BME280;70012;0.000;0.000;2024-03-06T04:32:51;100925.31;;;3.23;86.67
80648;BME280;70012;0.000;0.000;2024-03-06T04:35:18;100937.81;;;3.24;86.60
80648;BME280;70012;0.000;0.000;2024-03-06T04:37:45;100927.34;;;3.20;86.95
80648;BME280;70012;0.000;0.000;2024-03-06T04:40:15;100941.91;;;3.19;86.25
80648;BME280;70012;0.000;0.000;2024-03-06T04:42:42;100938.88;;;3.08;86.42
80648;BME280;70012;0.000;0.000;2024-03-06T04:45:16;100953.50;;;3.13;86.46
80648;BME280;70012;0.000;0.000;2024-03-06T04:47:45;100951.28;;;3.02;86.14
80648;BME280;70012;0.000;0.000;2024-03-06T04:50:13;100960.06;;;3.04;86.41
80648;BME280;70012;0.000;0.000;2024-03-06T04:52:41;100956.69;;;3.02;86.37
80648;BME280;70012;0.000;0.000;2024-03-06T04:55:14;100939.63;;;2.86;85.83
80648;BME280;70012;0.000;0.000;2024-03-06T04:57:58;100967.88;;;2.99;86.22
80648;BME280;70012;0.000;0.000;2024-03-06T05:00:24;100974.03;;;2.93;86.58
80648;BME280;70012;0.000;0.000;2024-03-06T05:02:52;100971.41;;;2.84;86.77
80648;BME280;70012;0.000;0.000;2024-03-06T05:05:32;100985.25;;;2.90;87.24
80648;BME280;70012;0.000;0.000;2024-03-06T05:08:13;100977.56;;;2.78;87.31
80648;BME280;70012;0.000;0.000;2024-03-06T05:10:55;100980.19;;;2.86;87.11
80648;BME280;70012;0.000;0.000;2024-03-06T05:13:35;100968.38;;;2.72;87.44
80648;BME280;70012;0.000;0.000;2024-03-06T05:16:16;100993.06;;;2.84;87.58
80648;BME280;70012;0.000;0.000;2024-03-06T05:18:57;100980.47;;;2.77;87.02
80648;BME280;70012;0.000;0.000;2024-03-06T05:21:37;100984.13;;;2.69;86.98
80648;BME280;70012;0.000;0.000;2024-03-06T05:24:18;100993.91;;;2.70;86.75
80648;BME280;70012;0.000;0.000;2024-03-06T05:27:02;100987.38;;;2.64;87.34
80648;BME280;70012;0.000;0.000;2024-03-06T05:29:43;100982.16;;;2.63;88.17
80648;BME280;70012;0.000;0.000;2024-03-06T05:32:27;100981.69;;;2.59;87.96
80648;BME280;70012;0.000;0.000;2024-03-06T05:35:07;101005.09;;;2.67;87.59
80648;BME280;70012;0.000;0.000;2024-03-06T05:37:57;101001.16;;;2.54;88.07
80648;BME280;70012;0.000;0.000;2024-03-06T05:40:37;101017.66;;;2.60;87.86
80648;BME280;70012;0.000;0.000;2024-03-06T05:43:20;101019.72;;;2.58;88.15
80648;BME280;70012;0.000;0.000;2024-03-06T05:46:04;101003.66;;;2.41;87.76
80648;BME280;70012;0.000;0.000;2024-03-06T05:48:44;100999.34;;;2.32;87.67
80648;BME280;70012;0.000;0.000;2024-03-06T05:51:25;101031.97;;;2.45;87.58
80648;BME280;70012;0.000;0.000;2024-03-06T05:54:05;101032.38;;;2.42;87.36
80648;BME280;70012;0.000;0.000;2024-03-06T05:56:49;101037.16;;;2.32;87.47
80648;BME280;70012;0.000;0.000;2024-03-06T05:59:30;101025.78;;;2.21;87.33
80648;BME280;70012;0.000;0.000;2024-03-06T06:01:56;101029.88;;;2.17;86.94
80648;BME280;70012;0.000;0.000;2024-03-06T06:04:26;101034.44;;;2.17;86.94
80648;BME280;70012;0.000;0.000;2024-03-06T06:06:53;101039.81;;;2.17;87.07
80648;BME280;70012;0.000;0.000;2024-03-06T06:09:19;101044.50;;;2.23;87.11
80648;BME280;70012;0.000;0.000;2024-03-06T06:11:53;101032.16;;;2.05;87.10
80648;BME280;70012;0.000;0.000;2024-03-06T06:14:26;101035.97;;;2.11;86.82
80648;BME280;70012;0.000;0.000;2024-03-06T06:17:06;101050.88;;;2.07;87.48
80648;BME280;70012;0.000;0.000;2024-03-06T06:19:36;101028.69;;;1.97;87.12
80648;BME280;70012;0.000;0.000;2024-03-06T06:22:02;101051.72;;;2.07;87.27
80648;BME280;70012;0.000;0.000;2024-03-06T06:24:29;101052.38;;;2.10;87.08
80648;BME280;70012;0.000;0.000;2024-03-06T06:26:56;101066.75;;;2.10;87.75
80648;BME280;70012;0.000;0.000;2024-03-06T06:29:26;101058.78;;;2.08;87.94
80648;BME280;70012;0.000;0.000;2024-03-06T06:31:52;101057.28;;;2.06;87.69
80648;BME280;70012;0.000;0.000;2024-03-06T06:34:21;101074.19;;;2.08;87.71
80648;BME280;70012;0.000;0.000;2024-03-06T06:36:47;101056.53;;;1.97;87.80
80648;BME280;70012;0.000;0.000;2024-03-06T06:39:14;101077.06;;;2.06;88.09
80648;BME280;70012;0.000;0.000;2024-03-06T06:41:45;101077.06;;;2.06;88.15
80648;BME280;70012;0.000;0.000;2024-03-06T06:44:15;101080.78;;;2.05;88.06
80648;BME280;70012;0.000;0.000;2024-03-06T06:46:45;101090.00;;;2.11;88.04
80648;BME280;70012;0.000;0.000;2024-03-06T06:49:15;101096.75;;;2.15;87.85
80648;BME280;70012;0.000;0.000;2024-03-06T06:51:43;101103.84;;;2.16;87.79
80648;BME280;70012;0.000;0.000;2024-03-06T06:54:10;101095.06;;;2.14;88.49
80648;BME280;70012;0.000;0.000;2024-03-06T06:56:36;101099.16;;;2.10;88.38
80648;BME280;70012;0.000;0.000;2024-03-06T06:59:03;101095.41;;;2.11;88.63
80648;BME280;70012;0.000;0.000;2024-03-06T07:01:30;101093.75;;;2.10;88.25
80648;BME280;70012;0.000;0.000;2024-03-06T07:03:56;101104.66;;;2.17;87.63
80648;BME280;70012;0.000;0.000;2024-03-06T07:06:26;101113.94;;;2.22;87.81
80648;BME280;70012;0.000;0.000;2024-03-06T07:08:53;101106.69;;;2.15;88.07
80648;BME280;70012;0.000;0.000;2024-03-06T07:11:20;101118.38;;;2.15;87.47
80648;BME280;70012;0.000;0.000;2024-03-06T07:13:56;101106.59;;;2.08;87.94
80648;BME280;70012;0.000;0.000;2024-03-06T07:16:23;101112.97;;;2.15;87.62
80648;BME280;70012;0.000;0.000;2024-03-06T07:18:56;101128.41;;;2.30;88.38
80648;BME280;70012;0.000;0.000;2024-03-06T07:21:25;101107.56;;;2.15;88.07
80648;BME280;70012;0.000;0.000;2024-03-06T07:23:52;101133.81;;;2.30;88.27
80648;BME280;70012;0.000;0.000;2024-03-06T07:26:25;101106.84;;;2.21;88.04
80648;BME280;70012;0.000;0.000;2024-03-06T07:28:56;101122.34;;;2.28;88.04
80648;BME280;70012;0.000;0.000;2024-03-06T07:31:28;101132.13;;;2.29;87.68
80648;BME280;70012;0.000;0.000;2024-03-06T07:33:55;101145.22;;;2.40;88.03
80648;BME280;70012;0.000;0.000;2024-03-06T07:36:25;101152.31;;;2.41;87.35
80648;BME280;70012;0.000;0.000;2024-03-06T07:38:52;101139.50;;;2.35;87.50
80648;BME280;70012;0.000;0.000;2024-03-06T07:41:24;101131.94;;;2.30;87.44
80648;BME280;70012;0.000;0.000;2024-03-06T07:43:57;101140.81;;;2.39;87.53
80648;BME280;70012;0.000;0.000;2024-03-06T07:46:27;101152.66;;;2.38;87.72
80648;BME280;70012;0.000;0.000;2024-03-06T07:48:54;101144.19;;;2.41;87.90
80648;BME280;70012;0.000;0.000;2024-03-06T07:51:27;101155.97;;;2.48;88.15
80648;BME280;70012;0.000;0.000;2024-03-06T07:53:54;101155.50;;;2.45;87.33
80648;BME280;70012;0.000;0.000;2024-03-06T07:56:25;101170.78;;;2.52;87.68
80648;BME280;70012;0.000;0.000;2024-03-06T07:58:52;101178.19;;;2.59;87.20
80648;BME280;70012;0.000;0.000;2024-03-06T08:01:25;101169.44;;;2.56;87.24
80648;BME280;70012;0.000;0.000;2024-03-06T08:03:55;101147.66;;;2.50;87.55
80648;BME280;70012;0.000;0.000;2024-03-06T08:06:25;101175.81;;;2.64;87.50
80648;BME280;70012;0.000;0.000;2024-03-06T08:09:07;101174.94;;;2.63;88.15
80648;BME280;70012;0.000;0.000;2024-03-06T08:11:48;101179.16;;;2.66;87.27
80648;BME280;70012;0.000;0.000;2024-03-06T08:14:29;101182.81;;;2.73;87.32
80648;BME280;70012;0.000;0.000;2024-03-06T08:17:09;101196.09;;;2.83;87.62
80648;BME280;70012;0.000;0.000;2024-03-06T08:19:49;101174.69;;;2.73;87.64
80648;BME280;70012;0.000;0.000;2024-03-06T08:22:37;101161.38;;;2.71;87.52
80648;BME280;70012;0.000;0.000;2024-03-06T08:25:17;101187.78;;;2.84;87.57
80648;BME280;70012;0.000;0.000;2024-03-06T08:27:57;101198.38;;;2.94;86.98
80648;BME280;70012;0.000;0.000;2024-03-06T08:30:38;101192.59;;;2.97;88.34
80648;BME280;70012;0.000;0.000;2024-03-06T08:33:19;101179.59;;;2.93;87.63
80648;BME280;70012;0.000;0.000;2024-03-06T08:36:06;101203.81;;;3.09;87.36
80648;BME280;70012;0.000;0.000;2024-03-06T08:38:48;101216.91;;;3.20;87.53
80648;BME280;70012;0.000;0.000;2024-03-06T08:41:25;101200.19;;;3.17;88.14
80648;BME280;70012;0.000;0.000;2024-03-06T08:43:52;101205.41;;;3.18;87.22
80648;BME280;70012;0.000;0.000;2024-03-06T08:46:21;101223.56;;;3.33;87.72
80648;BME280;70012;0.000;0.000;2024-03-06T08:48:55;101205.63;;;3.32;88.00
80648;BME280;70012;0.000;0.000;2024-03-06T08:51:22;101232.53;;;3.48;87.83
80648;BME280;70012;0.000;0.000;2024-03-06T08:53:48;101232.00;;;3.53;88.18
80648;BME280;70012;0.000;0.000;2024-03-06T08:56:15;101239.84;;;3.63;88.63
80648;BME280;70012;0.000;0.000;2024-03-06T08:58:42;101238.09;;;3.70;88.76
80648;BME280;70012;0.000;0.000;2024-03-06T09:01:09;101234.16;;;3.73;88.23
80648;BME280;70012;0.000;0.000;2024-03-06T09:03:36;101237.34;;;3.76;87.49
80648;BME280;70012;0.000;0.000;2024-03-06T09:06:03;101235.19;;;3.87;88.48
80648;BME280;70012;0.000;0.000;2024-03-06T09:08:29;101224.81;;;3.90;87.55
80648;BME280;70012;0.000;0.000;2024-03-06T09:10:56;101234.06;;;3.96;87.06
80648;BME280;70012;0.000;0.000;2024-03-06T09:13:26;101238.72;;;4.02;87.75
80648;BME280;70012;0.000;0.000;2024-03-06T09:15:53;101240.88;;;4.07;87.42
80648;BME280;70012;0.000;0.000;2024-03-06T09:18:19;101228.81;;;4.09;86.58
80648;BME280;70012;0.000;0.000;2024-03-06T09:20:46;101233.09;;;4.19;87.54
80648;BME280;70012;0.000;0.000;2024-03-06T09:23:13;101228.59;;;4.26;87.52
80648;BME280;70012;0.000;0.000;2024-03-06T09:25:41;101233.25;;;4.32;87.70
80648;BME280;70012;0.000;0.000;2024-03-06T09:28:09;101232.50;;;4.38;87.44
80648;BME280;70012;0.000;0.000;2024-03-06T09:30:36;101232.56;;;4.45;87.67
80648;BME280;70012;0.000;0.000;2024-03-06T09:33:02;101230.97;;;4.51;87.27
80648;BME280;70012;0.000;0.000;2024-03-06T09:35:29;101244.81;;;4.56;87.71
80648;BME280;70012;0.000;0.000;2024-03-06T09:37:56;101243.78;;;4.57;86.71
80648;BME280;70012;0.000;0.000;2024-03-06T09:40:24;101251.13;;;4.63;87.38
80648;BME280;70012;0.000;0.000;2024-03-06T09:42:51;101250.38;;;4.69;86.84
80648;BME280;70012;0.000;0.000;2024-03-06T09:45:19;101254.63;;;4.78;87.54
80648;BME280;70012;0.000;0.000;2024-03-06T09:47:50;101253.03;;;4.84;86.35
80648;BME280;70012;0.000;0.000;2024-03-06T09:50:23;101257.03;;;4.88;86.22
80648;BME280;70012;0.000;0.000;2024-03-06T09:52:52;101261.09;;;4.99;87.03
80648;BME280;70012;0.000;0.000;2024-03-06T09:55:22;101261.22;;;5.12;86.90
80648;BME280;70012;0.000;0.000;2024-03-06T09:57:48;101260.44;;;5.19;86.39
80648;BME280;70012;0.000;0.000;2024-03-06T10:00:17;101264.06;;;5.26;85.83
80648;BME280;70012;0.000;0.000;2024-03-06T10:02:56;101270.13;;;5.28;85.53
80648;BME280;70012;0.000;0.000;2024-03-06T10:05:24;101265.34;;;5.30;85.61
80648;BME280;70012;0.000;0.000;2024-03-06T10:07:51;101262.50;;;5.38;85.13
80648;BME280;70012;0.000;0.000;2024-03-06T10:10:19;101267.78;;;5.47;84.77
80648;BME280;70012;0.000;0.000;2024-03-06T10:12:47;101268.03;;;5.52;85.06
80648;BME280;70012;0.000;0.000;2024-03-06T10:15:15;101269.97;;;5.58;84.52
80648;BME280;70012;0.000;0.000;2024-03-06T10:17:42;101277.13;;;5.66;84.29
80648;BME280;70012;0.000;0.000;2024-03-06T10:20:20;101279.28;;;5.77;84.87
80648;BME280;70012;0.000;0.000;2024-03-06T10:22:52;101280.59;;;5.88;83.87
80648;BME280;70012;0.000;0.000;2024-03-06T10:25:24;101285.50;;;5.99;83.29
80648;BME280;70012;0.000;0.000;2024-03-06T10:28:06;101283.28;;;6.09;85.04
80648;BME280;70012;0.000;0.000;2024-03-06T10:30:41;101284.16;;;6.17;84.57
80648;BME280;70012;0.000;0.000;2024-03-06T10:33:13;101287.09;;;6.22;83.71
80648;BME280;70012;0.000;0.000;2024-03-06T10:35:43;101284.22;;;6.30;83.52
80648;BME280;70012;0.000;0.000;2024-03-06T10:38:12;101277.56;;;6.39;84.50
80648;BME280;70012;0.000;0.000;2024-03-06T10:40:41;101276.34;;;6.49;83.63
80648;BME280;70012;0.000;0.000;2024-03-06T10:43:11;101285.78;;;6.53;82.78
80648;BME280;70012;0.000;0.000;2024-03-06T10:45:49;101281.19;;;6.60;82.57
80648;BME280;70012;0.000;0.000;2024-03-06T10:48:18;101283.09;;;6.66;82.59
80648;BME280;70012;0.000;0.000;2024-03-06T10:50:47;101285.84;;;6.73;83.12
80648;BME280;70012;0.000;0.000;2024-03-06T10:53:17;101284.41;;;6.84;83.79
80648;BME280;70012;0.000;0.000;2024-03-06T10:55:49;101291.56;;;6.98;83.56
80648;BME280;70012;0.000;0.000;2024-03-06T10:58:17;101300.59;;;7.05;82.12
80648;BME280;70012;0.000;0.000;2024-03-06T11:00:47;101286.97;;;7.12;82.24
80648;BME280;70012;0.000;0.000;2024-03-06T11:03:15;101291.63;;;7.25;82.80
80648;BME280;70012;0.000;0.000;2024-03-06T11:05:43;101288.25;;;7.36;82.37
80648;BME280;70012;0.000;0.000;2024-03-06T11:08:13;101289.53;;;7.47;80.57
80648;BME280;70012;0.000;0.000;2024-03-06T11:10:42;101288.06;;;7.58;80.52
80648;BME280;70012;0.000;0.000;2024-03-06T11:13:30;101292.47;;;7.73;80.08
80648;BME280;70012;0.000;0.000;2024-03-06T11:16:01;101302.72;;;7.84;80.12
80648;BME280;70012;0.000;0.000;2024-03-06T11:23:29;101300.53;;;8.20;77.14
80648;BME280;70012;0.000;0.000;2024-03-06T11:28:27;101293.97;;;8.47;76.02
80648;BME280;70012;0.000;0.000;2024-03-06T11:31:04;101296.22;;;8.57;77.89
80648;BME280;70012;0.000;0.000;2024-03-06T11:33:36;101307.28;;;8.76;76.74
80648;BME280;70012;0.000;0.000;2024-03-06T11:41:20;101299.38;;;9.32;74.13
80648;BME280;70012;0.000;0.000;2024-03-06T11:43:51;101297.13;;;9.47;72.96
80648;BME280;70012;0.000;0.000;2024-03-06T11:46:20;101294.91;;;9.63;72.53
80648;BME280;70012;0.000;0.000;2024-03-06T11:48:55;101292.78;;;9.65;70.90
80648;BME280;70012;0.000;0.000;2024-03-06T11:51:23;101296.19;;;9.60;70.70
80648;BME280;70012;0.000;0.000;2024-03-06T11:53:50;101291.66;;;9.47;70.77
80648;BME280;70012;0.000;0.000;2024-03-06T11:56:18;101285.44;;;9.40;71.70
80648;BME280;70012;0.000;0.000;2024-03-06T11:58:46;101292.13;;;9.44;72.56
80648;BME280;70012;0.000;0.000;2024-03-06T12:01:16;101291.38;;;9.55;70.51
80648;BME280;70012;0.000;0.000;2024-03-06T12:03:43;101284.34;;;9.66;69.12
80648;BME280;70012;0.000;0.000;2024-03-06T12:06:10;101287.88;;;9.73;70.15
80648;BME280;70012;0.000;0.000;2024-03-06T12:08:38;101287.44;;;9.76;70.08
80648;BME280;70012;0.000;0.000;2024-03-06T12:11:06;101280.06;;;9.77;69.31
80648;BME280;70012;0.000;0.000;2024-03-06T12:13:34;101286.00;;;9.92;67.09
80648;BME280;70012;0.000;0.000;2024-03-06T12:16:08;101286.47;;;10.08;67.92
80648;BME280;70012;0.000;0.000;2024-03-06T12:18:35;101284.34;;;10.29;68.54
80648;BME280;70012;0.000;0.000;2024-03-06T12:21:04;101274.69;;;10.45;67.81
80648;BME280;70012;0.000;0.000;2024-03-06T12:23:31;101290.22;;;10.81;65.91
80648;BME280;70012;0.000;0.000;2024-03-06T12:28:32;101281.28;;;11.16;65.39
80648;BME280;70012;0.000;0.000;2024-03-06T12:30:59;101289.91;;;11.32;63.40
80648;BME280;70012;0.000;0.000;2024-03-06T12:33:28;101288.03;;;11.44;64.76
80648;BME280;70012;0.000;0.000;2024-03-06T12:36:02;101285.41;;;11.49;63.33
80648;BME280;70012;0.000;0.000;2024-03-06T12:38:30;101287.31;;;11.61;61.47
80648;BME280;70012;0.000;0.000;2024-03-06T12:40:57;101290.91;;;11.61;63.19
80648;BME280;70012;0.000;0.000;2024-03-06T12:43:25;101289.13;;;11.67;62.43
80648;BME280;70012;0.000;0.000;2024-03-06T12:45:52;101292.09;;;11.77;62.92
80648;BME280;70012;0.000;0.000;2024-03-06T12:48:23;101289.13;;;11.91;62.59
80648;BME280;70012;0.000;0.000;2024-03-06T12:50:50;101290.47;;;12.00;60.93
80648;BME280;70012;0.000;0.000;2024-03-06T12:53:18;101291.41;;;12.06;61.43
80648;BME280;70012;0.000;0.000;2024-03-06T12:55:45;101290.59;;;12.05;60.74
80648;BME280;70012;0.000;0.000;2024-03-06T12:58:13;101281.38;;;12.11;60.27
80648;BME280;70012;0.000;0.000;2024-03-06T13:00:40;101269.69;;;11.80;55.32
80648;BME280;70012;0.000;0.000;2024-03-06T13:03:07;101281.13;;;11.89;57.51
80648;BME280;70012;0.000;0.000;2024-03-06T13:05:34;101285.44;;;11.97;59.71
80648;BME280;70012;0.000;0.000;2024-03-06T13:08:01;101275.66;;;12.01;58.81
80648;BME280;70012;0.000;0.000;2024-03-06T13:10:28;101279.84;;;12.04;59.09
80648;BME280;70012;0.000;0.000;2024-03-06T13:12:55;101286.53;;;11.84;56.96
80648;BME280;70012;0.000;0.000;2024-03-06T13:15:22;101282.09;;;11.71;57.13
80648;BME280;70012;0.000;0.000;2024-03-06T13:17:49;101277.88;;;11.45;56.80
80648;BME280;70012;0.000;0.000;2024-03-06T13:20:15;101275.03;;;11.40;59.63
80648;BME280;70012;0.000;0.000;2024-03-06T13:22:42;101280.13;;;11.36;60.59
80648;BME280;70012;0.000;0.000;2024-03-06T13:25:10;101271.44;;;11.27;58.29
80648;BME280;70012;0.000;0.000;2024-03-06T13:27:37;101273.56;;;11.25;61.35
80648;BME280;70012;0.000;0.000;2024-03-06T13:30:05;101273.19;;;11.21;61.25
80648;BME280;70012;0.000;0.000;2024-03-06T13:32:34;101275.06;;;11.09;60.31
80648;BME280;70012;0.000;0.000;2024-03-06T13:35:02;101271.47;;;10.97;59.40
80648;BME280;70012;0.000;0.000;2024-03-06T13:37:28;101277.44;;;10.94;61.41
80648;BME280;70012;0.000;0.000;2024-03-06T13:39:55;101271.66;;;10.83;60.21
80648;BME280;70012;0.000;0.000;2024-03-06T13:42:27;101278.44;;;10.81;58.31
80648;BME280;70012;0.000;0.000;2024-03-06T13:44:54;101277.63;;;10.80;60.46
80648;BME280;70012;0.000;0.000;2024-03-06T13:47:22;101278.75;;;10.72;59.29
80648;BME280;70012;0.000;0.000;2024-03-06T13:49:49;101278.16;;;10.70;61.16